sensor_id;sensor_type;location;lat;lon;timestamp;P1;durP1;ratioP1;P2;durP2;ratioP2
79592;SDS011;69074;45.164;9.704;2023-12-28T00:00:38;47.5;;;42.3;;
79592;SDS011;69074;45.164;9.704;2023-12-28T00:03:03;47.5;;;42.3;;
79592;SDS011;69074;45.164;9.704;2023-12-28T00:05:28;47.5;;;42.3;;
79592;SDS011;69074;45.164;9.704;2023-12-28T00:07:53;55.2;;;46.0;;
79592;SDS011;69074;45.164;9.704;2023-12-28T00:10:18;55.2;;;46.0;;
79592;SDS011;69074;45.164;9.704;2023-12-28T00:12:43;55.2;;;46.0;;
79592;SDS011;69074;45.164;9.704;2023-12-28T00:15:08;55.2;;;46.0;;
79592;SDS011;69074;45.164;9.704;2023-12-28T00:17:33;55.2;;;46.0;;
79592;SDS011;69074;45.164;9.704;2023-12-28T00:19:58;55.2;;;46.0;;
79592;SDS011;69074;45.164;9.704;2023-12-28T00:22:23;56.6;;;48.1;;
79592;SDS011;69074;45.164;9.704;2023-12-28T00:24:48;56.6;;;48.1;;
79592;SDS011;69074;45.164;9.704;2023-12-28T00:27:13;56.6;;;48.1;;
79592;SDS011;69074;45.164;9.704;2023-12-28T00:29:38;56.6;;;48.1;;
79592;SDS011;69074;45.164;9.704;2023-12-28T00:32:04;56.6;;;48.1;;
79592;SDS011;69074;45.164;9.704;2023-12-28T00:34:28;56.6;;;48.1;;
79592;SDS011;69074;45.164;9.704;2023-12-28T00:36:53;56.2;;;49.3;;
79592;SDS011;69074;45.164;9.704;2023-12-28T00:39:18;56.2;;;49.3;;
79592;SDS011;69074;45.164;9.704;2023-12-28T00:41:44;56.2;;;49.3;;
79592;SDS011;69074;45.164;9.704;2023-12-28T00:44:08;56.2;;;49.3;;
79592;SDS011;69074;45.164;9.704;2023-12-28T00:46:33;56.2;;;49.3;;
79592;SDS011;69074;45.164;9.704;2023-12-28T00:48:58;56.2;;;49.3;;
79592;SDS011;69074;45.164;9.704;2023-12-28T00:51:23;51.6;;;45.9;;
79592;SDS011;69074;45.164;9.704;2023-12-28T00:53:48;51.6;;;45.9;;
79592;SDS011;69074;45.164;9.704;2023-12-28T00:56:13;51.6;;;45.9;;
79592;SDS011;69074;45.164;9.704;2023-12-28T00:58:39;51.6;;;45.9;;
79592;SDS011;69074;45.164;9.704;2023-12-28T01:01:03;51.6;;;45.9;;
79592;SDS011;69074;45.164;9.704;2023-12-28T01:03:28;51.6;;;45.9;;
79592;SDS011;69074;45.164;9.704;2023-12-28T01:05:53;51.6;;;45.9;;
79592;SDS011;69074;45.164;9.704;2023-12-28T01:08:18;56.3;;;47.2;;
79592;SDS011;69074;45.164;9.704;2023-12-28T01:10:44;56.3;;;47.2;;
79592;SDS011;69074;45.164;9.704;2023-12-28T01:13:09;56.3;;;47.2;;
79592;SDS011;69074;45.164;9.704;2023-12-28T01:15:34;56.3;;;47.2;;
79592;SDS011;69074;45.164;9.704;2023-12-28T01:17:59;56.3;;;47.2;;
79592;SDS011;69074;45.164;9.704;2023-12-28T01:20:24;56.3;;;47.2;;
79592;SDS011;69074;45.164;9.704;2023-12-28T01:22:49;52.7;;;47.0;;
79592;SDS011;69074;45.164;9.704;2023-12-28T01:25:14;52.7;;;47.0;;
79592;SDS011;69074;45.164;9.704;2023-12-28T01:27:39;52.7;;;47.0;;
79592;SDS011;69074;45.164;9.704;2023-12-28T01:30:04;52.7;;;47.0;;
79592;SDS011;69074;45.164;9.704;2023-12-28T01:32:29;52.7;;;47.0;;
79592;SDS011;69074;45.164;9.704;2023-12-28T01:34:54;52.7;;;47.0;;
79592;SDS011;69074;45.164;9.704;2023-12-28T01:37:19;54.6;;;46.6;;
79592;SDS011;69074;45.164;9.704;2023-12-28T01:39:44;54.6;;;46.6;;
79592;SDS011;69074;45.164;9.704;2023-12-28T01:42:09;54.6;;;46.6;;
79592;SDS011;69074;45.164;9.704;2023-12-28T01:44:34;54.6;;;46.6;;
79592;SDS011;69074;45.164;9.704;2023-12-28T01:46:59;54.6;;;46.6;;
79592;SDS011;69074;45.164;9.704;2023-12-28T01:49:24;54.6;;;46.6;;
79592;SDS011;69074;45.164;9.704;2023-12-28T01:51:49;59.2;;;50.1;;
79592;SDS011;69074;45.164;9.704;2023-12-28T01:54:14;59.2;;;50.1;;
79592;SDS011;69074;45.164;9.704;2023-12-28T01:56:39;59.2;;;50.1;;
79592;SDS011;69074;45.164;9.704;2023-12-28T01:59:04;59.2;;;50.1;;
79592;SDS011;69074;45.164;9.704;2023-12-28T02:01:29;59.2;;;50.1;;
79592;SDS011;69074;45.164;9.704;2023-12-28T02:03:54;59.2;;;50.1;;
79592;SDS011;69074;45.164;9.704;2023-12-28T02:06:19;56.5;;;50.1;;
79592;SDS011;69074;45.164;9.704;2023-12-28T02:08:44;56.5;;;50.1;;
79592;SDS011;69074;45.164;9.704;2023-12-28T02:11:09;56.5;;;50.1;;
79592;SDS011;69074;45.164;9.704;2023-12-28T02:13:34;56.5;;;50.1;;
79592;SDS011;69074;45.164;9.704;2023-12-28T02:16:01;56.5;;;50.1;;
79592;SDS011;69074;45.164;9.704;2023-12-28T02:18:26;56.5;;;50.1;;
79592;SDS011;69074;45.164;9.704;2023-12-28T02:20:49;56.5;;;50.1;;
79592;SDS011;69074;45.164;9.704;2023-12-28T02:23:14;58.8;;;50.9;;
79592;SDS011;69074;45.164;9.704;2023-12-28T02:25:39;58.8;;;50.9;;
79592;SDS011;69074;45.164;9.704;2023-12-28T02:28:04;58.8;;;50.9;;
79592;SDS011;69074;45.164;9.704;2023-12-28T02:30:29;58.8;;;50.9;;
79592;SDS011;69074;45.164;9.704;2023-12-28T02:32:56;58.8;;;50.9;;
79592;SDS011;69074;45.164;9.704;2023-12-28T02:35:20;58.8;;;50.9;;
79592;SDS011;69074;45.164;9.704;2023-12-28T02:37:44;56.8;;;49.8;;
79592;SDS011;69074;45.164;9.704;2023-12-28T02:40:09;56.8;;;49.8;;
79592;SDS011;69074;45.164;9.704;2023-12-28T02:42:34;56.8;;;49.8;;
79592;SDS011;69074;45.164;9.704;2023-12-28T02:44:59;56.8;;;49.8;;
79592;SDS011;69074;45.164;9.704;2023-12-28T02:47:24;56.8;;;49.8;;
79592;SDS011;69074;45.164;9.704;2023-12-28T02:49:49;56.8;;;49.8;;
79592;SDS011;69074;45.164;9.704;2023-12-28T02:52:14;53.6;;;46.7;;
79592;SDS011;69074;45.164;9.704;2023-12-28T02:54:39;53.6;;;46.7;;
79592;SDS011;69074;45.164;9.704;2023-12-28T02:57:04;53.6;;;46.7;;
79592;SDS011;69074;45.164;9.704;2023-12-28T02:59:29;53.6;;;46.7;;
79592;SDS011;69074;45.164;9.704;2023-12-28T03:01:54;53.6;;;46.7;;
79592;SDS011;69074;45.164;9.704;2023-12-28T03:04:19;53.6;;;46.7;;
79592;SDS011;69074;45.164;9.704;2023-12-28T03:06:45;50.9;;;43.9;;
79592;SDS011;69074;45.164;9.704;2023-12-28T03:09:09;50.9;;;43.9;;
79592;SDS011;69074;45.164;9.704;2023-12-28T03:11:34;50.9;;;43.9;;
79592;SDS011;69074;45.164;9.704;2023-12-28T03:13:59;50.9;;;43.9;;
79592;SDS011;69074;45.164;9.704;2023-12-28T03:16:24;50.9;;;43.9;;
79592;SDS011;69074;45.164;9.704;2023-12-28T03:18:49;50.9;;;43.9;;
79592;SDS011;69074;45.164;9.704;2023-12-28T03:21:14;47.0;;;41.2;;
79592;SDS011;69074;45.164;9.704;2023-12-28T03:23:39;47.0;;;41.2;;
79592;SDS011;69074;45.164;9.704;2023-12-28T03:26:04;47.0;;;41.2;;
79592;SDS011;69074;45.164;9.704;2023-12-28T03:28:29;47.0;;;41.2;;
79592;SDS011;69074;45.164;9.704;2023-12-28T03:30:54;47.0;;;41.2;;
79592;SDS011;69074;45.164;9.704;2023-12-28T03:33:19;47.0;;;41.2;;
79592;SDS011;69074;45.164;9.704;2023-12-28T03:35:44;47.0;;;41.2;;
79592;SDS011;69074;45.164;9.704;2023-12-28T03:38:09;44.4;;;39.5;;
79592;SDS011;69074;45.164;9.704;2023-12-28T03:40:34;44.4;;;39.5;;
79592;SDS011;69074;45.164;9.704;2023-12-28T03:42:59;44.4;;;39.5;;
79592;SDS011;69074;45.164;9.704;2023-12-28T03:45:24;44.4;;;39.5;;
79592;SDS011;69074;45.164;9.704;2023-12-28T03:47:49;44.4;;;39.5;;
79592;SDS011;69074;45.164;9.704;2023-12-28T03:50:14;44.4;;;39.5;;
79592;SDS011;69074;45.164;9.704;2023-12-28T03:52:39;40.1;;;35.7;;
79592;SDS011;69074;45.164;9.704;2023-12-28T03:55:04;40.1;;;35.7;;
79592;SDS011;69074;45.164;9.704;2023-12-28T03:57:29;40.1;;;35.7;;
79592;SDS011;69074;45.164;9.704;2023-12-28T03:59:54;40.1;;;35.7;;
79592;SDS011;69074;45.164;9.704;2023-12-28T04:02:19;40.1;;;35.7;;
79592;SDS011;69074;45.164;9.704;2023-12-28T04:04:44;40.1;;;35.7;;
79592;SDS011;69074;45.164;9.704;2023-12-28T04:07:09;38.7;;;34.5;;
79592;SDS011;69074;45.164;9.704;2023-12-28T04:09:34;38.7;;;34.5;;
79592;SDS011;69074;45.164;9.704;2023-12-28T04:11:59;38.7;;;34.5;;
79592;SDS011;69074;45.164;9.704;2023-12-28T04:14:24;38.7;;;34.5;;
79592;SDS011;69074;45.164;9.704;2023-12-28T04:16:49;38.7;;;34.5;;
79592;SDS011;69074;45.164;9.704;2023-12-28T04:19:14;38.7;;;34.5;;
79592;SDS011;69074;45.164;9.704;2023-12-28T04:21:42;36.3;;;31.6;;
79592;SDS011;69074;45.164;9.704;2023-12-28T04:24:05;36.3;;;31.6;;
79592;SDS011;69074;45.164;9.704;2023-12-28T04:26:29;36.3;;;31.6;;
79592;SDS011;69074;45.164;9.704;2023-12-28T04:28:54;36.3;;;31.6;;
79592;SDS011;69074;45.164;9.704;2023-12-28T04:31:19;36.3;;;31.6;;
79592;SDS011;69074;45.164;9.704;2023-12-28T04:33:44;36.3;;;31.6;;
79592;SDS011;69074;45.164;9.704;2023-12-28T04:36:09;33.0;;;29.4;;
79592;SDS011;69074;45.164;9.704;2023-12-28T04:38:34;33.0;;;29.4;;
79592;SDS011;69074;45.164;9.704;2023-12-28T04:40:59;33.0;;;29.4;;
79592;SDS011;69074;45.164;9.704;2023-12-28T04:43:24;33.0;;;29.4;;
79592;SDS011;69074;45.164;9.704;2023-12-28T04:45:49;33.0;;;29.4;;
79592;SDS011;69074;45.164;9.704;2023-12-28T04:48:14;33.0;;;29.4;;
79592;SDS011;69074;45.164;9.704;2023-12-28T04:50:39;33.0;;;29.4;;
79592;SDS011;69074;45.164;9.704;2023-12-28T04:53:04;31.8;;;28.4;;
79592;SDS011;69074;45.164;9.704;2023-12-28T04:55:29;31.8;;;28.4;;
79592;SDS011;69074;45.164;9.704;2023-12-28T04:57:54;31.8;;;28.4;;
79592;SDS011;69074;45.164;9.704;2023-12-28T05:00:19;31.8;;;28.4;;
79592;SDS011;69074;45.164;9.704;2023-12-28T05:02:44;31.8;;;28.4;;
79592;SDS011;69074;45.164;9.704;2023-12-28T05:05:11;31.8;;;28.4;;
79592;SDS011;69074;45.164;9.704;2023-12-28T05:07:34;29.7;;;26.6;;
79592;SDS011;69074;45.164;9.704;2023-12-28T05:09:59;29.7;;;26.6;;
79592;SDS011;69074;45.164;9.704;2023-12-28T05:12:24;29.7;;;26.6;;
79592;SDS011;69074;45.164;9.704;2023-12-28T05:14:49;29.7;;;26.6;;
79592;SDS011;69074;45.164;9.704;2023-12-28T05:17:14;29.7;;;26.6;;
79592;SDS011;69074;45.164;9.704;2023-12-28T05:19:39;29.7;;;26.6;;
79592;SDS011;69074;45.164;9.704;2023-12-28T05:22:04;26.9;;;24.0;;
79592;SDS011;69074;45.164;9.704;2023-12-28T05:24:29;26.9;;;24.0;;
79592;SDS011;69074;45.164;9.704;2023-12-28T05:26:54;26.9;;;24.0;;
79592;SDS011;69074;45.164;9.704;2023-12-28T05:29:19;26.9;;;24.0;;
79592;SDS011;69074;45.164;9.704;2023-12-28T05:31:44;26.9;;;24.0;;
79592;SDS011;69074;45.164;9.704;2023-12-28T05:34:09;26.9;;;24.0;;
79592;SDS011;69074;45.164;9.704;2023-12-28T05:36:34;24.2;;;21.0;;
79592;SDS011;69074;45.164;9.704;2023-12-28T05:38:59;24.2;;;21.0;;
79592;SDS011;69074;45.164;9.704;2023-12-28T05:41:24;24.2;;;21.0;;
79592;SDS011;69074;45.164;9.704;2023-12-28T05:43:49;24.2;;;21.0;;
79592;SDS011;69074;45.164;9.704;2023-12-28T05:46:14;24.2;;;21.0;;
79592;SDS011;69074;45.164;9.704;2023-12-28T05:48:39;24.2;;;21.0;;
79592;SDS011;69074;45.164;9.704;2023-12-28T05:51:04;21.9;;;19.6;;
79592;SDS011;69074;45.164;9.704;2023-12-28T05:53:29;21.9;;;19.6;;
79592;SDS011;69074;45.164;9.704;2023-12-28T05:55:54;21.9;;;19.6;;
79592;SDS011;69074;45.164;9.704;2023-12-28T05:58:19;21.9;;;19.6;;
79592;SDS011;69074;45.164;9.704;2023-12-28T06:00:45;21.9;;;19.6;;
79592;SDS011;69074;45.164;9.704;2023-12-28T06:03:09;21.9;;;19.6;;
79592;SDS011;69074;45.164;9.704;2023-12-28T06:05:35;21.9;;;19.6;;
79592;SDS011;69074;45.164;9.704;2023-12-28T06:07:59;18.8;;;16.9;;
79592;SDS011;69074;45.164;9.704;2023-12-28T06:10:24;18.8;;;16.9;;
79592;SDS011;69074;45.164;9.704;2023-12-28T06:12:50;18.8;;;16.9;;
79592;SDS011;69074;45.164;9.704;2023-12-28T06:15:14;18.8;;;16.9;;
79592;SDS011;69074;45.164;9.704;2023-12-28T06:17:39;18.8;;;16.9;;
79592;SDS011;69074;45.164;9.704;2023-12-28T06:20:05;18.8;;;16.9;;
79592;SDS011;69074;45.164;9.704;2023-12-28T06:22:30;17.8;;;16.0;;
79592;SDS011;69074;45.164;9.704;2023-12-28T06:24:55;17.8;;;16.0;;
79592;SDS011;69074;45.164;9.704;2023-12-28T06:27:20;17.8;;;16.0;;
79592;SDS011;69074;45.164;9.704;2023-12-28T06:29:45;17.8;;;16.0;;
79592;SDS011;69074;45.164;9.704;2023-12-28T06:32:10;17.8;;;16.0;;
79592;SDS011;69074;45.164;9.704;2023-12-28T06:34:35;17.8;;;16.0;;
79592;SDS011;69074;45.164;9.704;2023-12-28T06:37:00;20.3;;;15.8;;
79592;SDS011;69074;45.164;9.704;2023-12-28T06:39:25;20.3;;;15.8;;
79592;SDS011;69074;45.164;9.704;2023-12-28T06:41:50;20.3;;;15.8;;
79592;SDS011;69074;45.164;9.704;2023-12-28T06:44:15;20.3;;;15.8;;
79592;SDS011;69074;45.164;9.704;2023-12-28T06:46:40;20.3;;;15.8;;
79592;SDS011;69074;45.164;9.704;2023-12-28T06:49:05;20.3;;;15.8;;
79592;SDS011;69074;45.164;9.704;2023-12-28T06:51:30;19.6;;;16.0;;
79592;SDS011;69074;45.164;9.704;2023-12-28T06:53:55;19.6;;;16.0;;
79592;SDS011;69074;45.164;9.704;2023-12-28T06:56:20;19.6;;;16.0;;
79592;SDS011;69074;45.164;9.704;2023-12-28T06:58:45;19.6;;;16.0;;
79592;SDS011;69074;45.164;9.704;2023-12-28T07:01:10;19.6;;;16.0;;
79592;SDS011;69074;45.164;9.704;2023-12-28T07:03:35;19.6;;;16.0;;
79592;SDS011;69074;45.164;9.704;2023-12-28T07:06:00;19.6;;;16.0;;
79592;SDS011;69074;45.164;9.704;2023-12-28T07:08:25;17.2;;;13.9;;
79592;SDS011;69074;45.164;9.704;2023-12-28T07:10:50;17.2;;;13.9;;
79592;SDS011;69074;45.164;9.704;2023-12-28T07:13:15;17.2;;;13.9;;
79592;SDS011;69074;45.164;9.704;2023-12-28T07:15:40;17.2;;;13.9;;
79592;SDS011;69074;45.164;9.704;2023-12-28T07:18:05;17.2;;;13.9;;
79592;SDS011;69074;45.164;9.704;2023-12-28T07:20:30;17.2;;;13.9;;
79592;SDS011;69074;45.164;9.704;2023-12-28T07:22:55;22.6;;;14.9;;
79592;SDS011;69074;45.164;9.704;2023-12-28T07:25:20;22.6;;;14.9;;
79592;SDS011;69074;45.164;9.704;2023-12-28T07:27:45;22.6;;;14.9;;
79592;SDS011;69074;45.164;9.704;2023-12-28T07:30:10;22.6;;;14.9;;
79592;SDS011;69074;45.164;9.704;2023-12-28T07:32:35;22.6;;;14.9;;
79592;SDS011;69074;45.164;9.704;2023-12-28T07:35:00;22.6;;;14.9;;
79592;SDS011;69074;45.164;9.704;2023-12-28T07:37:25;17.7;;;13.6;;
79592;SDS011;69074;45.164;9.704;2023-12-28T07:39:50;17.7;;;13.6;;
79592;SDS011;69074;45.164;9.704;2023-12-28T07:42:15;17.7;;;13.6;;
79592;SDS011;69074;45.164;9.704;2023-12-28T07:44:40;17.7;;;13.6;;
79592;SDS011;69074;45.164;9.704;2023-12-28T07:47:05;17.7;;;13.6;;
79592;SDS011;69074;45.164;9.704;2023-12-28T07:49:30;17.7;;;13.6;;
79592;SDS011;69074;45.164;9.704;2023-12-28T07:51:55;22.1;;;14.7;;
79592;SDS011;69074;45.164;9.704;2023-12-28T07:54:20;22.1;;;14.7;;
79592;SDS011;69074;45.164;9.704;2023-12-28T07:56:45;22.1;;;14.7;;
79592;SDS011;69074;45.164;9.704;2023-12-28T07:59:10;22.1;;;14.7;;
79592;SDS011;69074;45.164;9.704;2023-12-28T08:01:35;22.1;;;14.7;;
79592;SDS011;69074;45.164;9.704;2023-12-28T08:04:00;22.1;;;14.7;;
79592;SDS011;69074;45.164;9.704;2023-12-28T08:06:25;16.5;;;13.1;;
79592;SDS011;69074;45.164;9.704;2023-12-28T08:08:50;16.5;;;13.1;;
79592;SDS011;69074;45.164;9.704;2023-12-28T08:11:15;16.5;;;13.1;;
79592;SDS011;69074;45.164;9.704;2023-12-28T08:13:40;16.5;;;13.1;;
79592;SDS011;69074;45.164;9.704;2023-12-28T08:16:05;16.5;;;13.1;;
79592;SDS011;69074;45.164;9.704;2023-12-28T08:18:30;16.5;;;13.1;;
79592;SDS011;69074;45.164;9.704;2023-12-28T08:20:55;16.5;;;13.1;;
79592;SDS011;69074;45.164;9.704;2023-12-28T08:23:20;17.2;;;11.7;;
79592;SDS011;69074;45.164;9.704;2023-12-28T08:25:45;17.2;;;11.7;;
79592;SDS011;69074;45.164;9.704;2023-12-28T08:28:10;17.2;;;11.7;;
79592;SDS011;69074;45.164;9.704;2023-12-28T08:30:35;17.2;;;11.7;;
79592;SDS011;69074;45.164;9.704;2023-12-28T08:33:00;17.2;;;11.7;;
79592;SDS011;69074;45.164;9.704;2023-12-28T08:35:25;17.2;;;11.7;;
79592;SDS011;69074;45.164;9.704;2023-12-28T08:37:50;17.3;;;12.5;;
79592;SDS011;69074;45.164;9.704;2023-12-28T08:40:15;17.3;;;12.5;;
79592;SDS011;69074;45.164;9.704;2023-12-28T08:42:40;17.3;;;12.5;;
79592;SDS011;69074;45.164;9.704;2023-12-28T08:45:05;17.3;;;12.5;;
79592;SDS011;69074;45.164;9.704;2023-12-28T08:47:30;17.3;;;12.5;;
79592;SDS011;69074;45.164;9.704;2023-12-28T08:49:55;17.3;;;12.5;;
79592;SDS011;69074;45.164;9.704;2023-12-28T08:52:20;19.9;;;14.0;;
79592;SDS011;69074;45.164;9.704;2023-12-28T08:54:45;19.9;;;14.0;;
79592;SDS011;69074;45.164;9.704;2023-12-28T08:57:10;19.9;;;14.0;;
79592;SDS011;69074;45.164;9.704;2023-12-28T08:59:35;19.9;;;14.0;;
79592;SDS011;69074;45.164;9.704;2023-12-28T09:02:00;19.9;;;14.0;;
79592;SDS011;69074;45.164;9.704;2023-12-28T09:04:25;19.9;;;14.0;;
79592;SDS011;69074;45.164;9.704;2023-12-28T09:06:50;17.0;;;12.8;;
79592;SDS011;69074;45.164;9.704;2023-12-28T09:09:15;17.0;;;12.8;;
79592;SDS011;69074;45.164;9.704;2023-12-28T09:11:40;17.0;;;12.8;;
79592;SDS011;69074;45.164;9.704;2023-12-28T09:14:05;17.0;;;12.8;;
79592;SDS011;69074;45.164;9.704;2023-12-28T09:16:30;17.0;;;12.8;;
79592;SDS011;69074;45.164;9.704;2023-12-28T09:18:55;17.0;;;12.8;;
79592;SDS011;69074;45.164;9.704;2023-12-28T09:21:20;16.6;;;12.0;;
79592;SDS011;69074;45.164;9.704;2023-12-28T09:23:45;16.6;;;12.0;;
79592;SDS011;69074;45.164;9.704;2023-12-28T09:26:10;16.6;;;12.0;;
79592;SDS011;69074;45.164;9.704;2023-12-28T09:28:35;16.6;;;12.0;;
79592;SDS011;69074;45.164;9.704;2023-12-28T09:31:00;16.6;;;12.0;;
79592;SDS011;69074;45.164;9.704;2023-12-28T09:33:25;16.6;;;12.0;;
79592;SDS011;69074;45.164;9.704;2023-12-28T09:35:50;16.6;;;12.0;;
79592;SDS011;69074;45.164;9.704;2023-12-28T09:38:15;16.9;;;13.2;;
79592;SDS011;69074;45.164;9.704;2023-12-28T09:40:41;16.9;;;13.2;;
79592;SDS011;69074;45.164;9.704;2023-12-28T09:43:07;16.9;;;13.2;;
79592;SDS011;69074;45.164;9.704;2023-12-28T09:45:30;16.9;;;13.2;;
79592;SDS011;69074;45.164;9.704;2023-12-28T09:47:55;16.9;;;13.2;;
79592;SDS011;69074;45.164;9.704;2023-12-28T09:50:20;16.9;;;13.2;;
79592;SDS011;69074;45.164;9.704;2023-12-28T09:52:45;20.5;;;15.1;;
79592;SDS011;69074;45.164;9.704;2023-12-28T09:55:10;20.5;;;15.1;;
79592;SDS011;69074;45.164;9.704;2023-12-28T09:57:35;20.5;;;15.1;;
79592;SDS011;69074;45.164;9.704;2023-12-28T10:00:00;20.5;;;15.1;;
79592;SDS011;69074;45.164;9.704;2023-12-28T10:02:25;20.5;;;15.1;;
79592;SDS011;69074;45.164;9.704;2023-12-28T10:04:50;20.5;;;15.1;;
79592;SDS011;69074;45.164;9.704;2023-12-28T10:07:15;22.4;;;18.0;;
79592;SDS011;69074;45.164;9.704;2023-12-28T10:09:40;22.4;;;18.0;;
79592;SDS011;69074;45.164;9.704;2023-12-28T10:12:05;22.4;;;18.0;;
79592;SDS011;69074;45.164;9.704;2023-12-28T10:14:30;22.4;;;18.0;;
79592;SDS011;69074;45.164;9.704;2023-12-28T10:16:55;22.4;;;18.0;;
79592;SDS011;69074;45.164;9.704;2023-12-28T10:19:21;22.4;;;18.0;;
79592;SDS011;69074;45.164;9.704;2023-12-28T10:21:45;26.1;;;20.9;;
79592;SDS011;69074;45.164;9.704;2023-12-28T10:24:10;26.1;;;20.9;;
79592;SDS011;69074;45.164;9.704;2023-12-28T10:26:35;26.1;;;20.9;;
79592;SDS011;69074;45.164;9.704;2023-12-28T10:29:00;26.1;;;20.9;;
79592;SDS011;69074;45.164;9.704;2023-12-28T10:31:25;26.1;;;20.9;;
79592;SDS011;69074;45.164;9.704;2023-12-28T10:33:50;26.1;;;20.9;;
79592;SDS011;69074;45.164;9.704;2023-12-28T10:36:15;31.5;;;25.5;;
79592;SDS011;69074;45.164;9.704;2023-12-28T10:38:40;31.5;;;25.5;;
79592;SDS011;69074;45.164;9.704;2023-12-28T10:41:06;31.5;;;25.5;;
79592;SDS011;69074;45.164;9.704;2023-12-28T10:46:36;31.5;;;25.5;;
79592;SDS011;69074;45.164;9.704;2023-12-28T10:49:07;31.5;;;25.5;;
79592;SDS011;69074;45.164;9.704;2023-12-28T10:51:25;34.2;;;28.5;;
79592;SDS011;69074;45.164;9.704;2023-12-28T10:53:52;34.2;;;28.5;;
79592;SDS011;69074;45.164;9.704;2023-12-28T10:56:18;34.2;;;28.5;;
79592;SDS011;69074;45.164;9.704;2023-12-28T10:58:43;34.2;;;28.5;;
79592;SDS011;69074;45.164;9.704;2023-12-28T11:01:05;34.2;;;28.5;;
79592;SDS011;69074;45.164;9.704;2023-12-28T11:03:32;34.2;;;28.5;;
79592;SDS011;69074;45.164;9.704;2023-12-28T11:05:55;34.2;;;28.5;;
79592;SDS011;69074;45.164;9.704;2023-12-28T11:08:20;35.5;;;29.6;;
79592;SDS011;69074;45.164;9.704;2023-12-28T11:10:45;35.5;;;29.6;;
79592;SDS011;69074;45.164;9.704;2023-12-28T11:13:10;35.5;;;29.6;;
79592;SDS011;69074;45.164;9.704;2023-12-28T11:15:35;35.5;;;29.6;;
79592;SDS011;69074;45.164;9.704;2023-12-28T11:18:00;35.5;;;29.6;;
79592;SDS011;69074;45.164;9.704;2023-12-28T11:20:25;35.5;;;29.6;;
79592;SDS011;69074;45.164;9.704;2023-12-28T11:22:50;37.0;;;31.1;;
79592;SDS011;69074;45.164;9.704;2023-12-28T11:25:15;37.0;;;31.1;;
79592;SDS011;69074;45.164;9.704;2023-12-28T11:27:40;37.0;;;31.1;;
79592;SDS011;69074;45.164;9.704;2023-12-28T11:30:05;37.0;;;31.1;;
79592;SDS011;69074;45.164;9.704;2023-12-28T11:32:31;37.0;;;31.1;;
79592;SDS011;69074;45.164;9.704;2023-12-28T11:34:56;37.0;;;31.1;;
79592;SDS011;69074;45.164;9.704;2023-12-28T11:37:20;42.6;;;33.9;;
79592;SDS011;69074;45.164;9.704;2023-12-28T11:39:45;42.6;;;33.9;;
79592;SDS011;69074;45.164;9.704;2023-12-28T11:42:10;42.6;;;33.9;;
79592;SDS011;69074;45.164;9.704;2023-12-28T11:44:37;42.6;;;33.9;;
79592;SDS011;69074;45.164;9.704;2023-12-28T11:47:00;42.6;;;33.9;;
79592;SDS011;69074;45.164;9.704;2023-12-28T11:49:25;42.6;;;33.9;;
79592;SDS011;69074;45.164;9.704;2023-12-28T11:51:53;43.7;;;35.3;;
79592;SDS011;69074;45.164;9.704;2023-12-28T11:54:15;43.7;;;35.3;;
79592;SDS011;69074;45.164;9.704;2023-12-28T11:56:40;43.7;;;35.3;;
79592;SDS011;69074;45.164;9.704;2023-12-28T11:59:05;43.7;;;35.3;;
79592;SDS011;69074;45.164;9.704;2023-12-28T12:01:30;43.7;;;35.3;;
79592;SDS011;69074;45.164;9.704;2023-12-28T12:03:55;43.7;;;35.3;;
79592;SDS011;69074;45.164;9.704;2023-12-28T12:06:20;43.0;;;35.3;;
79592;SDS011;69074;45.164;9.704;2023-12-28T12:08:45;43.0;;;35.3;;
79592;SDS011;69074;45.164;9.704;2023-12-28T12:11:10;43.0;;;35.3;;
79592;SDS011;69074;45.164;9.704;2023-12-28T12:13:35;43.0;;;35.3;;
79592;SDS011;69074;45.164;9.704;2023-12-28T12:16:00;43.0;;;35.3;;
79592;SDS011;69074;45.164;9.704;2023-12-28T12:18:25;43.0;;;35.3;;
79592;SDS011;69074;45.164;9.704;2023-12-28T12:20:50;43.0;;;35.3;;
79592;SDS011;69074;45.164;9.704;2023-12-28T12:23:15;43.7;;;37.2;;
79592;SDS011;69074;45.164;9.704;2023-12-28T12:25:40;43.7;;;37.2;;
79592;SDS011;69074;45.164;9.704;2023-12-28T12:28:05;43.7;;;37.2;;
79592;SDS011;69074;45.164;9.704;2023-12-28T12:30:30;43.7;;;37.2;;
79592;SDS011;69074;45.164;9.704;2023-12-28T12:32:55;43.7;;;37.2;;
79592;SDS011;69074;45.164;9.704;2023-12-28T12:35:20;43.7;;;37.2;;
79592;SDS011;69074;45.164;9.704;2023-12-28T12:37:45;76.3;;;59.7;;
79592;SDS011;69074;45.164;9.704;2023-12-28T12:40:10;76.3;;;59.7;;
79592;SDS011;69074;45.164;9.704;2023-12-28T12:42:35;76.3;;;59.7;;
79592;SDS011;69074;45.164;9.704;2023-12-28T12:45:01;76.3;;;59.7;;
79592;SDS011;69074;45.164;9.704;2023-12-28T12:47:25;76.3;;;59.7;;
79592;SDS011;69074;45.164;9.704;2023-12-28T12:49:51;76.3;;;59.7;;
79592;SDS011;69074;45.164;9.704;2023-12-28T12:52:15;91.3;;;68.8;;
79592;SDS011;69074;45.164;9.704;2023-12-28T12:54:40;91.3;;;68.8;;
79592;SDS011;69074;45.164;9.704;2023-12-28T12:57:05;91.3;;;68.8;;
79592;SDS011;69074;45.164;9.704;2023-12-28T12:59:30;91.3;;;68.8;;
79592;SDS011;69074;45.164;9.704;2023-12-28T13:01:55;91.3;;;68.8;;
79592;SDS011;69074;45.164;9.704;2023-12-28T13:04:20;91.3;;;68.8;;
79592;SDS011;69074;45.164;9.704;2023-12-28T13:06:45;91.7;;;74.8;;
79592;SDS011;69074;45.164;9.704;2023-12-28T13:09:10;91.7;;;74.8;;
79592;SDS011;69074;45.164;9.704;2023-12-28T13:11:35;91.7;;;74.8;;
79592;SDS011;69074;45.164;9.704;2023-12-28T13:14:00;91.7;;;74.8;;
79592;SDS011;69074;45.164;9.704;2023-12-28T13:16:25;91.7;;;74.8;;
79592;SDS011;69074;45.164;9.704;2023-12-28T13:18:50;91.7;;;74.8;;
79592;SDS011;69074;45.164;9.704;2023-12-28T13:21:15;91.8;;;74.9;;
79592;SDS011;69074;45.164;9.704;2023-12-28T13:23:40;91.8;;;74.9;;
79592;SDS011;69074;45.164;9.704;2023-12-28T13:26:05;91.8;;;74.9;;
79592;SDS011;69074;45.164;9.704;2023-12-28T13:28:30;91.8;;;74.9;;
79592;SDS011;69074;45.164;9.704;2023-12-28T13:30:55;91.8;;;74.9;;
79592;SDS011;69074;45.164;9.704;2023-12-28T13:33:20;91.8;;;74.9;;
79592;SDS011;69074;45.164;9.704;2023-12-28T13:35:45;91.8;;;74.9;;
79592;SDS011;69074;45.164;9.704;2023-12-28T13:38:11;91.1;;;74.1;;
79592;SDS011;69074;45.164;9.704;2023-12-28T13:40:35;91.1;;;74.1;;
79592;SDS011;69074;45.164;9.704;2023-12-28T13:43:00;91.1;;;74.1;;
79592;SDS011;69074;45.164;9.704;2023-12-28T13:45:25;91.1;;;74.1;;
79592;SDS011;69074;45.164;9.704;2023-12-28T13:47:50;91.1;;;74.1;;
79592;SDS011;69074;45.164;9.704;2023-12-28T13:50:15;91.1;;;74.1;;
79592;SDS011;69074;45.164;9.704;2023-12-28T13:52:40;82.7;;;68.9;;
79592;SDS011;69074;45.164;9.704;2023-12-28T13:55:06;82.7;;;68.9;;
79592;SDS011;69074;45.164;9.704;2023-12-28T13:57:30;82.7;;;68.9;;
79592;SDS011;69074;45.164;9.704;2023-12-28T13:59:55;82.7;;;68.9;;
79592;SDS011;69074;45.164;9.704;2023-12-28T14:02:20;82.7;;;68.9;;
79592;SDS011;69074;45.164;9.704;2023-12-28T14:04:45;82.7;;;68.9;;
79592;SDS011;69074;45.164;9.704;2023-12-28T14:07:10;77.4;;;63.6;;
79592;SDS011;69074;45.164;9.704;2023-12-28T14:09:35;77.4;;;63.6;;
79592;SDS011;69074;45.164;9.704;2023-12-28T14:12:00;77.4;;;63.6;;
79592;SDS011;69074;45.164;9.704;2023-12-28T14:14:25;77.4;;;63.6;;
79592;SDS011;69074;45.164;9.704;2023-12-28T14:16:50;77.4;;;63.6;;
79592;SDS011;69074;45.164;9.704;2023-12-28T14:19:16;77.4;;;63.6;;
79592;SDS011;69074;45.164;9.704;2023-12-28T14:21:40;73.5;;;58.4;;
79592;SDS011;69074;45.164;9.704;2023-12-28T14:24:06;73.5;;;58.4;;
79592;SDS011;69074;45.164;9.704;2023-12-28T14:26:31;73.5;;;58.4;;
79592;SDS011;69074;45.164;9.704;2023-12-28T14:28:55;73.5;;;58.4;;
79592;SDS011;69074;45.164;9.704;2023-12-28T14:31:21;73.5;;;58.4;;
79592;SDS011;69074;45.164;9.704;2023-12-28T14:33:45;73.5;;;58.4;;
79592;SDS011;69074;45.164;9.704;2023-12-28T14:36:12;68.0;;;54.9;;